Time;durP1;ratioP1;P1;durP2;ratioP2;P2;SDS_P1;SDS_P2;PMS_P1;PMS_P2;Temp;Humidity;BMP_temperature;BMP_pressure;BME280_temperature;BME280_humidity;BME280_pressure;Samples;Min_cycle;Max_cycle;Signal;HPM_P1;HPM_P2
2023/08/30 00:02:45;;;;;;;22.27;10.43;;;;;;;;;;6105270;29;20144;-60
2023/08/30 00:05:46;;;;;;;19.73;10.02;;;;;;;;;;6107809;29;20899;-58
2023/08/30 00:08:47;;;;;;;19.73;10.32;;;;;;;;;;6110850;29;20055;-60
2023/08/30 00:11:47;;;;;;;20.63;10.70;;;;;;;;;;6105620;29;20055;-57
2023/08/30 00:14:48;;;;;;;21.98;10.35;;;;;;;;;;6111997;29;20475;-61
2023/08/30 00:17:51;;;;;;;20.83;9.70;;;;;;;;;;6112889;29;20052;-59
2023/08/30 00:20:53;;;;;;;21.80;10.02;;;;;;;;;;6110119;29;20055;-59
2023/08/30 00:23:53;;;;;;;19.65;9.93;;;;;;;;;;6106517;29;20579;-60
2023/08/30 00:26:54;;;;;;;19.07;10.40;;;;;;;;;;6110589;29;20929;-59
2023/08/30 00:29:54;;;;;;;23.80;11.30;;;;;;;;;;6108247;29;20145;-61
2023/08/30 00:32:55;;;;;;;23.13;10.85;;;;;;;;;;6109521;29;20565;-59
2023/08/30 00:35:59;;;;;;;22.10;10.83;;;;;;;;;;6109500;29;20048;-58
2023/08/30 00:39:00;;;;;;;19.83;10.18;;;;;;;;;;6108475;29;20051;-60
2023/08/30 00:42:04;;;;;;;20.08;9.60;;;;;;;;;;6103827;29;20052;-60
2023/08/30 00:45:06;;;;;;;21.27;10.23;;;;;;;;;;6111106;29;20059;-59
2023/08/30 00:48:06;;;;;;;21.77;10.63;;;;;;;;;;6110500;29;20059;-59
2023/08/30 00:51:07;;;;;;;20.88;9.18;;;;;;;;;;6109655;29;20052;-60
2023/08/30 00:54:08;;;;;;;21.77;9.97;;;;;;;;;;6107153;29;20775;-60
2023/08/30 00:57:09;;;;;;;25.13;10.60;;;;;;;;;;6111081;29;20102;-61
2023/08/30 01:00:11;;;;;;;19.43;10.10;;;;;;;;;;6109724;29;20079;-60
2023/08/30 01:03:11;;;;;;;23.35;9.52;;;;;;;;;;6109314;29;20063;-59
2023/08/30 01:06:13;;;;;;;16.53;7.83;;;;;;;;;;6092049;29;20054;-57
2023/08/30 01:09:14;;;;;;;;;;;;;;;;;;6109221;29;20043;-57
2023/08/30 01:12:31;;;;;;;18.25;7.85;;;;;;;;;;6104596;29;19965;-61
2023/08/30 01:15:34;;;;;;;17.08;8.00;;;;;;;;;;6107428;29;20400;-58
2023/08/30 01:18:36;;;;;;;16.27;8.05;;;;;;;;;;6110485;29;20052;-58
2023/08/30 01:21:53;;;;;;;16.75;7.30;;;;;;;;;;6103463;29;20062;-59
2023/08/30 01:25:14;;;;;;;13.55;6.90;;;;;;;;;;6109681;29;20142;-59
2023/08/30 01:28:19;;;;;;;13.90;6.50;;;;;;;;;;6107800;29;20283;-59
2023/08/30 01:31:22;;;;;;;13.85;7.22;;;;;;;;;;6107337;29;20051;-60
2023/08/30 01:34:25;;;;;;;17.13;7.38;;;;;;;;;;6091681;29;20059;-59
2023/08/30 01:37:26;;;;;;;14.80;7.55;;;;;;;;;;6107873;29;20146;-59
2023/08/30 01:40:30;;;;;;;15.63;7.68;;;;;;;;;;6111463;29;20062;-59
2023/08/30 01:43:31;;;;;;;17.25;8.52;;;;;;;;;;6108283;29;20051;-58
2023/08/30 01:46:34;;;;;;;15.68;7.50;;;;;;;;;;6110345;29;20700;-59
2023/08/30 01:49:37;;;;;;;16.33;8.48;;;;;;;;;;6106229;29;20043;-57
2023/08/30 01:52:39;;;;;;;14.70;7.88;;;;;;;;;;6103778;29;20062;-59
2023/08/30 01:55:40;;;;;;;16.05;8.30;;;;;;;;;;6108502;29;20067;-59
2023/08/30 01:58:41;;;;;;;15.40;7.90;;;;;;;;;;6105957;29;20055;-60
2023/08/30 02:01:41;;;;;;;13.80;7.73;;;;;;;;;;6106947;29;20051;-59
2023/08/30 02:04:42;;;;;;;13.07;7.77;;;;;;;;;;6106423;29;20194;-59
2023/08/30 02:07:46;;;;;;;15.83;7.57;;;;;;;;;;6109961;29;20047;-59
2023/08/30 02:10:56;;;;;;;14.82;8.38;;;;;;;;;;6099803;29;20052;-58
2023/08/30 02:13:59;;;;;;;15.18;8.35;;;;;;;;;;6099160;29;20432;-58
2023/08/30 02:16:59;;;;;;;13.27;7.82;;;;;;;;;;6098269;29;20051;-58
2023/08/30 02:20:00;;;;;;;14.52;7.72;;;;;;;;;;6102298;29;20704;-59
2023/08/30 02:23:01;;;;;;;13.63;8.43;;;;;;;;;;6102711;29;20127;-58
2023/08/30 02:26:03;;;;;;;13.73;8.77;;;;;;;;;;6079089;29;20052;-59
2023/08/30 02:29:03;;;;;;;12.82;7.57;;;;;;;;;;6098144;29;20493;-60
2023/08/30 02:32:05;;;;;;;17.73;9.30;;;;;;;;;;6098471;29;20543;-59
2023/08/30 02:35:06;;;;;;;14.93;8.95;;;;;;;;;;6101739;29;20066;-59
2023/08/30 02:38:07;;;;;;;16.00;9.90;;;;;;;;;;6104347;29;20060;-59
2023/08/30 02:41:09;;;;;;;17.88;9.48;;;;;;;;;;6103477;29;20037;-59
2023/08/30 02:44:13;;;;;;;18.35;9.95;;;;;;;;;;6100463;29;20135;-59
2023/08/30 02:47:14;;;;;;;17.35;10.05;;;;;;;;;;6101196;29;20067;-56
2023/08/30 02:50:14;;;;;;;17.63;9.15;;;;;;;;;;6102572;29;20099;-58
2023/08/30 02:53:15;;;;;;;18.00;9.60;;;;;;;;;;6102455;29;20067;-59
2023/08/30 02:56:15;;;;;;;17.73;10.15;;;;;;;;;;6101052;29;20053;-59
2023/08/30 02:59:16;;;;;;;18.83;10.18;;;;;;;;;;6102474;29;20040;-58
2023/08/30 03:02:16;;;;;;;18.67;10.50;;;;;;;;;;6103196;29;20126;-59
2023/08/30 03:05:17;;;;;;;20.27;11.20;;;;;;;;;;6107405;29;20596;-59
2023/08/30 03:08:18;;;;;;;20.13;11.38;;;;;;;;;;6103675;29;20060;-57
2023/08/30 03:11:19;;;;;;;20.27;11.20;;;;;;;;;;6102876;29;20047;-58
2023/08/30 03:14:19;;;;;;;19.48;10.68;;;;;;;;;;6117164;29;20415;-59
2023/08/30 03:17:20;;;;;;;21.70;11.20;;;;;;;;;;6103582;29;20054;-58
2023/08/30 03:20:20;;;;;;;22.65;12.02;;;;;;;;;;6102154;29;20052;-60
2023/08/30 03:23:21;;;;;;;20.42;11.25;;;;;;;;;;6102433;29;20147;-59
2023/08/30 03:26:21;;;;;;;22.27;12.20;;;;;;;;;;6101966;29;20443;-60
2023/08/30 03:29:22;;;;;;;21.70;11.70;;;;;;;;;;6101767;29;20044;-59
2023/08/30 03:32:22;;;;;;;22.80;12.13;;;;;;;;;;6113580;29;21166;-60
2023/08/30 03:35:23;;;;;;;23.55;11.73;;;;;;;;;;6100309;29;20459;-57
2023/08/30 03:38:23;;;;;;;21.83;12.00;;;;;;;;;;6102373;29;20044;-58
2023/08/30 03:41:24;;;;;;;25.45;12.13;;;;;;;;;;6102030;29;20087;-58
2023/08/30 03:44:25;;;;;;;26.20;11.70;;;;;;;;;;6097314;29;20062;-57
2023/08/30 03:47:26;;;;;;;23.13;12.45;;;;;;;;;;6099449;29;20570;-59
2023/08/30 03:50:26;;;;;;;24.58;12.65;;;;;;;;;;6088792;29;20048;-58
2023/08/30 03:53:27;;;;;;;25.02;11.70;;;;;;;;;;6102670;29;20076;-60
2023/08/30 03:56:27;;;;;;;21.52;11.98;;;;;;;;;;6100958;29;20052;-59
2023/08/30 03:59:28;;;;;;;23.75;12.25;;;;;;;;;;6094387;29;20044;-59
2023/08/30 04:02:28;;;;;;;23.52;12.15;;;;;;;;;;6100741;29;20072;-59
2023/08/30 04:05:33;;;;;;;25.77;12.20;;;;;;;;;;6101134;29;20392;-58
2023/08/30 04:08:34;;;;;;;22.60;11.85;;;;;;;;;;6100804;29;20563;-63
2023/08/30 04:11:34;;;;;;;23.05;11.88;;;;;;;;;;6101343;29;20052;-58
2023/08/30 04:14:35;;;;;;;24.90;12.32;;;;;;;;;;6102585;29;20047;-58
2023/08/30 04:17:36;;;;;;;23.02;12.15;;;;;;;;;;6098661;29;20056;-57
2023/08/30 04:20:42;;;;;;;25.97;13.77;;;;;;;;;;6098873;29;20047;-58
2023/08/30 04:23:43;;;;;;;25.35;12.25;;;;;;;;;;6100434;29;20047;-59
2023/08/30 04:26:43;;;;;;;30.30;14.50;;;;;;;;;;6100218;29;20096;-59
2023/08/30 04:29:45;;;;;;;30.15;13.98;;;;;;;;;;6101048;29;20492;-59
2023/08/30 04:32:45;;;;;;;29.17;13.93;;;;;;;;;;6100231;29;20048;-59
2023/08/30 04:35:53;;;;;;;33.42;14.95;;;;;;;;;;6093990;29;20049;-60
2023/08/30 04:38:53;;;;;;;37.85;15.43;;;;;;;;;;6098731;29;20482;-58
2023/08/30 04:41:55;;;;;;;32.78;13.32;;;;;;;;;;6100297;29;20075;-59
2023/08/30 04:44:56;;;;;;;38.75;14.52;;;;;;;;;;6097341;29;20138;-60
2023/08/30 04:47:56;;;;;;;36.38;13.70;;;;;;;;;;6097538;29;20460;-60
2023/08/30 04:51:04;;;;;;;35.47;14.57;;;;;;;;;;6098105;29;20113;-60
2023/08/30 04:54:05;;;;;;;38.40;14.68;;;;;;;;;;6098318;29;20044;-61
2023/08/30 04:57:06;;;;;;;36.35;14.20;;;;;;;;;;6099343;29;20074;-61
2023/08/30 05:00:07;;;;;;;33.20;14.68;;;;;;;;;;6098618;29;20047;-61
2023/08/30 05:03:07;;;;;;;33.63;14.40;;;;;;;;;;6095581;29;20107;-61
2023/08/30 05:06:08;;;;;;;34.50;15.55;;;;;;;;;;6101541;29;20040;-61
2023/08/30 05:09:09;;;;;;;32.05;14.15;;;;;;;;;;6100532;29;20134;-61
2023/08/30 05:12:09;;;;;;;33.28;13.85;;;;;;;;;;6097219;29;20063;-60
2023/08/30 05:15:10;;;;;;;33.17;14.57;;;;;;;;;;6100099;29;20055;-57
2023/08/30 05:18:11;;;;;;;37.90;14.43;;;;;;;;;;6102128;29;20048;-60
2023/08/30 05:21:11;;;;;;;37.17;15.27;;;;;;;;;;6098302;29;20044;-61
2023/08/30 05:24:12;;;;;;;37.95;16.73;;;;;;;;;;6098606;29;20073;-61
2023/08/30 05:27:14;;;;;;;38.97;16.37;;;;;;;;;;6093366;29;20052;-61
2023/08/30 05:30:16;;;;;;;36.60;14.45;;;;;;;;;;6096956;29;20055;-60
2023/08/30 05:33:16;;;;;;;27.42;12.82;;;;;;;;;;6102821;29;20487;-59
2023/08/30 05:36:18;;;;;;;29.80;13.50;;;;;;;;;;6098344;29;20083;-59
2023/08/30 05:39:18;;;;;;;34.87;15.43;;;;;;;;;;6099234;29;20127;-60
2023/08/30 05:42:19;;;;;;;34.17;14.68;;;;;;;;;;6098801;29;20464;-60
2023/08/30 05:45:19;;;;;;;37.20;16.60;;;;;;;;;;6100781;29;20036;-60
2023/08/30 05:48:20;;;;;;;38.90;16.33;;;;;;;;;;6099193;29;20194;-60
2023/08/30 05:51:21;;;;;;;44.08;16.92;;;;;;;;;;6098440;29;20097;-60
2023/08/30 05:54:21;;;;;;;45.67;16.50;;;;;;;;;;6097381;29;20072;-60
2023/08/30 05:57:23;;;;;;;43.17;16.25;;;;;;;;;;6097407;29;20160;-59
2023/08/30 06:00:25;;;;;;;53.75;17.42;;;;;;;;;;6100464;29;20448;-60
2023/08/30 06:03:26;;;;;;;46.70;18.25;;;;;;;;;;6099497;29;20054;-59
2023/08/30 06:06:27;;;;;;;48.53;18.13;;;;;;;;;;6097911;29;20052;-60
2023/08/30 06:09:27;;;;;;;39.17;16.00;;;;;;;;;;6101690;29;20044;-60
2023/08/30 06:12:28;;;;;;;42.83;16.67;;;;;;;;;;6100484;29;20086;-58
2023/08/30 06:15:29;;;;;;;38.85;15.35;;;;;;;;;;6096511;29;20052;-60
2023/08/30 06:18:31;;;;;;;44.97;17.38;;;;;;;;;;6101964;29;20722;-60
2023/08/30 06:21:32;;;;;;;39.70;15.93;;;;;;;;;;6102134;29;20924;-58
2023/08/30 06:24:33;;;;;;;41.47;17.33;;;;;;;;;;6095704;29;20052;-60
2023/08/30 06:27:33;;;;;;;42.03;16.58;;;;;;;;;;6101571;29;20044;-59
2023/08/30 06:30:34;;;;;;;38.55;17.63;;;;;;;;;;6102704;29;20140;-60
2023/08/30 06:33:35;;;;;;;37.17;16.20;;;;;;;;;;6104385;29;20063;-60
2023/08/30 06:36:36;;;;;;;34.90;15.90;;;;;;;;;;6103728;29;20055;-60
2023/08/30 06:39:37;;;;;;;36.05;15.82;;;;;;;;;;6100911;29;20048;-59
2023/08/30 06:42:38;;;;;;;34.88;15.98;;;;;;;;;;6102974;29;20060;-60
2023/08/30 06:45:39;;;;;;;35.35;16.42;;;;;;;;;;6102669;29;20040;-59
2023/08/30 06:48:40;;;;;;;36.03;15.27;;;;;;;;;;6114648;29;20032;-59
2023/08/30 06:51:40;;;;;;;42.63;17.67;;;;;;;;;;6115601;29;20518;-60
2023/08/30 06:54:41;;;;;;;41.83;17.73;;;;;;;;;;6101820;29;20071;-59
2023/08/30 06:57:41;;;;;;;34.50;15.75;;;;;;;;;;6103214;29;20479;-59
2023/08/30 07:00:42;;;;;;;35.53;16.20;;;;;;;;;;6100177;29;20502;-59
2023/08/30 07:03:43;;;;;;;38.93;16.00;;;;;;;;;;6102189;29;20048;-60
2023/08/30 07:06:44;;;;;;;39.80;16.35;;;;;;;;;;6104201;29;20523;-59
2023/08/30 07:09:45;;;;;;;38.58;17.02;;;;;;;;;;6098677;29;20048;-59
2023/08/30 07:12:48;;;;;;;39.03;17.33;;;;;;;;;;6101842;29;20040;-59
2023/08/30 07:15:48;;;;;;;41.03;16.58;;;;;;;;;;6112739;29;20596;-60
2023/08/30 07:18:50;;;;;;;41.50;17.75;;;;;;;;;;6099127;29;20044;-59
2023/08/30 07:21:50;;;;;;;35.60;16.70;;;;;;;;;;6096594;29;20048;-60
2023/08/30 07:24:51;;;;;;;35.53;16.63;;;;;;;;;;6101181;29;20143;-60
2023/08/30 07:27:52;;;;;;;35.63;14.73;;;;;;;;;;6103041;29;20056;-60
2023/08/30 07:31:01;;;;;;;29.38;14.52;;;;;;;;;;6103518;29;20487;-59
2023/08/30 07:34:02;;;;;;;27.08;13.43;;;;;;;;;;6102455;29;20044;-57
2023/08/30 07:37:03;;;;;;;25.35;13.68;;;;;;;;;;6100560;29;20443;-60
2023/08/30 07:40:04;;;;;;;25.63;13.88;;;;;;;;;;6100515;29;20048;-58
2023/08/30 07:43:05;;;;;;;30.20;14.77;;;;;;;;;;6101964;29;20062;-60
2023/08/30 07:46:05;;;;;;;32.50;16.40;;;;;;;;;;6102668;29;20043;-60
2023/08/30 07:49:06;;;;;;;32.10;15.80;;;;;;;;;;6102037;29;20610;-60
2023/08/30 07:52:10;;;;;;;32.53;16.38;;;;;;;;;;6118526;29;20095;-60
2023/08/30 07:55:11;;;;;;;28.67;16.13;;;;;;;;;;6106589;29;20087;-59
2023/08/30 07:58:11;;;;;;;26.58;13.65;;;;;;;;;;6100963;29;20073;-60
2023/08/30 08:01:12;;;;;;;24.58;13.00;;;;;;;;;;6099497;29;20135;-58
2023/08/30 08:04:12;;;;;;;25.38;12.48;;;;;;;;;;6102216;29;20479;-59
2023/08/30 08:07:13;;;;;;;22.83;12.10;;;;;;;;;;6102426;29;20119;-59
2023/08/30 08:10:13;;;;;;;17.83;10.30;;;;;;;;;;6100232;29;20051;-59
2023/08/30 08:13:14;;;;;;;16.63;8.57;;;;;;;;;;6108415;29;20063;-60
2023/08/30 08:16:15;;;;;;;18.63;8.98;;;;;;;;;;6115256;29;20036;-59
2023/08/30 08:19:16;;;;;;;15.98;8.57;;;;;;;;;;6101227;29;20040;-58
2023/08/30 08:22:16;;;;;;;16.02;8.38;;;;;;;;;;6106087;29;20056;-59
2023/08/30 08:25:17;;;;;;;17.60;9.10;;;;;;;;;;6111420;29;20226;-59
2023/08/30 08:28:17;;;;;;;18.08;9.55;;;;;;;;;;6112126;29;20056;-59
2023/08/30 08:31:18;;;;;;;18.30;9.27;;;;;;;;;;6108502;29;20466;-59
2023/08/30 08:34:19;;;;;;;17.58;9.65;;;;;;;;;;6112581;29;20055;-59
2023/08/30 08:37:19;;;;;;;15.48;8.65;;;;;;;;;;6111950;29;20186;-59
2023/08/30 08:40:20;;;;;;;18.08;8.27;;;;;;;;;;6114149;29;20060;-59
2023/08/30 08:43:22;;;;;;;13.95;7.35;;;;;;;;;;6120027;29;20059;-59
2023/08/30 08:46:24;;;;;;;13.18;7.78;;;;;;;;;;6099268;29;20052;-59
2023/08/30 08:49:29;;;;;;;14.20;7.40;;;;;;;;;;6099729;29;20052;-61
2023/08/30 08:52:30;;;;;;;16.17;7.57;;;;;;;;;;6096767;29;20057;-61
2023/08/30 08:55:31;;;;;;;14.45;7.40;;;;;;;;;;6097113;29;20078;-61
2023/08/30 08:58:32;;;;;;;14.75;7.60;;;;;;;;;;6100487;29;21060;-61
2023/08/30 09:01:35;;;;;;;19.13;7.93;;;;;;;;;;6100838;29;20040;-61
2023/08/30 09:04:36;;;;;;;17.25;8.45;;;;;;;;;;6099518;29;20083;-60
2023/08/30 09:07:37;;;;;;;12.52;7.30;;;;;;;;;;6100315;29;20051;-60
2023/08/30 09:10:39;;;;;;;11.27;6.00;;;;;;;;;;6098534;29;20142;-60
2023/08/30 09:13:42;;;;;;;11.38;5.70;;;;;;;;;;6102193;29;20705;-61
2023/08/30 09:16:42;;;;;;;11.75;6.22;;;;;;;;;;6103142;29;20690;-59
2023/08/30 09:19:43;;;;;;;10.20;5.38;;;;;;;;;;6100024;29;20039;-59
2023/08/30 09:22:44;;;;;;;10.80;4.40;;;;;;;;;;6098896;29;20051;-60
2023/08/30 09:25:45;;;;;;;10.80;4.72;;;;;;;;;;6098607;29;20044;-59
2023/08/30 09:28:46;;;;;;;7.38;3.60;;;;;;;;;;6099650;29;20052;-60
2023/08/30 09:31:50;;;;;;;5.75;3.72;;;;;;;;;;6098853;29;20074;-59
2023/08/30 09:34:51;;;;;;;8.38;4.13;;;;;;;;;;6117513;29;20363;-60
2023/08/30 09:37:52;;;;;;;7.10;4.00;;;;;;;;;;6106090;29;20122;-60
2023/08/30 09:41:05;;;;;;;9.23;4.95;;;;;;;;;;6099390;29;20062;-60
2023/08/30 09:44:10;;;;;;;9.70;4.90;;;;;;;;;;6105069;29;20060;-60
2023/08/30 09:47:13;;;;;;;8.07;4.10;;;;;;;;;;6099109;29;20658;-59
2023/08/30 09:50:18;;;;;;;8.48;4.47;;;;;;;;;;6096850;29;20056;-60
2023/08/30 09:53:20;;;;;;;8.95;5.43;;;;;;;;;;6102232;29;20147;-60
2023/08/30 09:56:22;;;;;;;10.63;5.55;;;;;;;;;;6116299;29;20081;-60
2023/08/30 09:59:23;;;;;;;12.52;6.25;;;;;;;;;;6099156;29;20041;-57
2023/08/30 10:02:24;;;;;;;7.93;4.93;;;;;;;;;;6098732;29;20130;-60
2023/08/30 10:05:25;;;;;;;9.52;6.10;;;;;;;;;;6097961;29;20111;-60
2023/08/30 10:08:30;;;;;;;9.77;5.10;;;;;;;;;;6099280;29;20369;-59
2023/08/30 10:11:35;;;;;;;7.95;5.63;;;;;;;;;;6099028;29;20067;-60
2023/08/30 10:14:36;;;;;;;9.15;6.45;;;;;;;;;;6100944;29;20102;-59
2023/08/30 10:17:40;;;;;;;12.15;8.45;;;;;;;;;;6099298;29;20040;-59
2023/08/30 10:20:41;;;;;;;13.55;8.48;;;;;;;;;;6099161;29;20048;-60
2023/08/30 10:23:43;;;;;;;15.18;9.73;;;;;;;;;;6101900;29;20182;-60
2023/08/30 10:26:45;;;;;;;;;;;;;;;;;;6101755;29;20098;-60
2023/08/30 10:29:49;;;;;;;18.02;10.13;;;;;;;;;;6099350;29;20025;-60
2023/08/30 10:32:49;;;;;;;14.10;9.18;;;;;;;;;;6097320;29;20495;-59
2023/08/30 10:35:51;;;;;;;15.27;9.93;;;;;;;;;;6097632;29;20043;-60
2023/08/30 10:38:53;;;;;;;17.00;9.18;;;;;;;;;;6097871;29;20047;-60
2023/08/30 10:41:57;;;;;;;14.93;9.63;;;;;;;;;;6098597;29;20099;-59
2023/08/30 10:45:05;;;;;;;16.60;9.45;;;;;;;;;;6111833;29;20070;-59
2023/08/30 10:48:06;;;;;;;15.95;8.70;;;;;;;;;;6107948;29;20051;-60
2023/08/30 10:51:21;;;;;;;14.15;8.82;;;;;;;;;;6099418;29;20047;-60
2023/08/30 10:54:23;;;;;;;17.85;10.45;;;;;;;;;;6098870;29;20071;-59
2023/08/30 10:57:25;;;;;;;14.80;9.32;;;;;;;;;;6102249;29;20527;-59
2023/08/30 11:00:28;;;;;;;14.88;9.02;;;;;;;;;;6099462;29;20139;-60
2023/08/30 11:03:29;;;;;;;13.27;7.93;;;;;;;;;;6102166;29;20062;-59
2023/08/30 11:06:29;;;;;;;13.20;8.18;;;;;;;;;;6101266;29;20503;-61
2023/08/30 11:09:30;;;;;;;16.23;9.80;;;;;;;;;;6100768;29;20054;-60
2023/08/30 11:12:31;;;;;;;17.48;9.93;;;;;;;;;;6100864;29;20055;-59
2023/08/30 11:15:32;;;;;;;14.82;9.80;;;;;;;;;;6102476;29;20044;-59
2023/08/30 11:18:39;;;;;;;15.03;9.03;;;;;;;;;;6102330;29;20045;-60
2023/08/30 11:21:45;;;;;;;13.63;8.57;;;;;;;;;;6102037;29;20388;-58
2023/08/30 11:24:48;;;;;;;13.80;8.32;;;;;;;;;;6103877;29;20147;-59
2023/08/30 11:27:49;;;;;;;12.50;8.00;;;;;;;;;;6101167;29;20056;-60
2023/08/30 11:30:53;;;;;;;12.45;7.03;;;;;;;;;;6101380;29;20048;-60
2023/08/30 11:33:55;;;;;;;8.43;5.57;;;;;;;;;;6102027;29;20040;-60
2023/08/30 11:36:58;;;;;;;8.55;5.25;;;;;;;;;;6101160;29;20048;-60
2023/08/30 11:40:01;;;;;;;8.90;5.45;;;;;;;;;;6098130;29;20114;-60
2023/08/30 11:43:02;;;;;;;7.65;5.00;;;;;;;;;;6100512;29;20052;-57
2023/08/30 11:46:03;;;;;;;8.33;4.13;;;;;;;;;;6097961;29;20110;-60
2023/08/30 11:49:04;;;;;;;8.77;4.72;;;;;;;;;;6101076;29;20310;-60
2023/08/30 11:52:06;;;;;;;9.75;4.80;;;;;;;;;;6100627;29;20488;-59
2023/08/30 11:55:07;;;;;;;8.37;4.63;;;;;;;;;;6099923;29;20047;-59
2023/08/30 11:58:08;;;;;;;10.10;6.30;;;;;;;;;;6100566;29;20075;-57
2023/08/30 12:01:09;;;;;;;9.88;6.72;;;;;;;;;;6100814;29;20083;-59
2023/08/30 12:04:11;;;;;;;9.35;6.65;;;;;;;;;;6101015;29;20043;-59
2023/08/30 12:07:22;;;;;;;9.25;6.18;;;;;;;;;;6100234;29;20682;-59
2023/08/30 12:10:23;;;;;;;;;;;;;;;;;;6102666;29;20044;-60
2023/08/30 12:13:24;;;;;;;7.40;5.75;;;;;;;;;;6100226;29;19986;-60
2023/08/30 12:16:25;;;;;;;9.70;6.23;;;;;;;;;;6114489;29;20058;-59
2023/08/30 12:19:28;;;;;;;10.17;6.70;;;;;;;;;;6111223;29;20138;-59
2023/08/30 12:22:55;;;;;;;11.02;6.82;;;;;;;;;;6100933;29;20055;-61
2023/08/30 12:26:04;;;;;;;11.20;6.80;;;;;;;;;;6098015;29;20183;-60
2023/08/30 12:29:06;;;;;;;11.98;8.32;;;;;;;;;;6099634;29;20150;-60
2023/08/30 12:32:07;;;;;;;10.88;7.97;;;;;;;;;;6099119;29;20524;-59
2023/08/30 12:35:09;;;;;;;9.90;7.15;;;;;;;;;;6100453;29;20044;-60
2023/08/30 12:38:09;;;;;;;10.15;7.05;;;;;;;;;;6100512;29;20052;-61
2023/08/30 12:41:10;;;;;;;11.57;7.57;;;;;;;;;;6094413;29;20052;-60
2023/08/30 12:44:11;;;;;;;12.50;8.70;;;;;;;;;;6098702;29;20067;-61
2023/08/30 12:47:13;;;;;;;11.88;8.45;;;;;;;;;;6101100;29;20167;-60
2023/08/30 12:50:14;;;;;;;12.52;9.13;;;;;;;;;;6099508;29;20079;-60
2023/08/30 12:53:16;;;;;;;10.82;8.60;;;;;;;;;;6100946;29;20478;-60
2023/08/30 12:56:17;;;;;;;;;;;;;;;;;;6100999;29;20062;-60
2023/08/30 12:59:17;;;;;;;11.23;8.52;;;;;;;;;;6099018;29;19927;-59
2023/08/30 13:02:18;;;;;;;11.50;8.20;;;;;;;;;;6100790;29;20047;-59
2023/08/30 13:05:19;;;;;;;14.77;9.13;;;;;;;;;;6097128;29;20048;-61
2023/08/30 13:08:19;;;;;;;10.90;7.43;;;;;;;;;;6098985;29;20059;-60
2023/08/30 13:11:20;;;;;;;9.65;7.63;;;;;;;;;;6100831;29;20051;-60
2023/08/30 13:14:20;;;;;;;9.03;6.40;;;;;;;;;;6097524;29;20431;-60
2023/08/30 13:17:21;;;;;;;9.35;7.00;;;;;;;;;;6096456;29;20123;-59
2023/08/30 13:20:22;;;;;;;8.30;6.40;;;;;;;;;;6097038;29;20051;-57
2023/08/30 13:23:22;;;;;;;11.13;6.75;;;;;;;;;;6100571;29;20163;-60
2023/08/30 13:26:23;;;;;;;8.10;6.03;;;;;;;;;;6098767;29;20564;-59
2023/08/30 13:29:23;;;;;;;8.80;6.20;;;;;;;;;;6097762;29;20044;-59
2023/08/30 13:32:24;;;;;;;8.90;6.32;;;;;;;;;;6097720;29;20846;-60
2023/08/30 13:35:25;;;;;;;10.03;6.20;;;;;;;;;;6098736;29;20148;-59
2023/08/30 13:38:25;;;;;;;9.03;6.60;;;;;;;;;;6096838;29;20800;-59
2023/08/30 13:41:26;;;;;;;11.85;7.07;;;;;;;;;;6097952;29;20495;-60
2023/08/30 13:44:26;;;;;;;9.43;7.22;;;;;;;;;;6101111;29;20059;-60
2023/08/30 13:47:27;;;;;;;12.68;7.30;;;;;;;;;;6108342;29;20135;-60
2023/08/30 13:50:30;;;;;;;9.23;6.85;;;;;;;;;;6107725;29;20126;-60
2023/08/30 13:53:31;;;;;;;10.07;6.93;;;;;;;;;;6106970;29;20085;-60
2023/08/30 13:56:31;;;;;;;10.57;7.07;;;;;;;;;;6106759;29;20431;-60
2023/08/30 13:59:32;;;;;;;10.13;6.80;;;;;;;;;;6107962;29;20054;-59
2023/08/30 14:02:33;;;;;;;9.73;6.63;;;;;;;;;;6106635;29;20039;-60
2023/08/30 14:05:33;;;;;;;9.80;6.65;;;;;;;;;;6105938;29;20131;-60
2023/08/30 14:08:34;;;;;;;8.68;5.93;;;;;;;;;;6108419;29;20052;-60
2023/08/30 14:11:37;;;;;;;11.60;6.20;;;;;;;;;;6108126;29;20048;-60
2023/08/30 14:14:38;;;;;;;8.55;5.60;;;;;;;;;;6104556;29;20344;-60
2023/08/30 14:17:39;;;;;;;10.60;5.90;;;;;;;;;;6108323;29;20417;-60
2023/08/30 14:20:41;;;;;;;8.05;5.57;;;;;;;;;;6108775;29;20085;-60
2023/08/30 14:23:41;;;;;;;8.80;5.43;;;;;;;;;;6107835;29;20433;-60
2023/08/30 14:26:42;;;;;;;8.70;5.85;;;;;;;;;;6108596;29;20055;-61
2023/08/30 14:29:43;;;;;;;7.90;5.15;;;;;;;;;;6111433;28;20088;-60
2023/08/30 14:32:43;;;;;;;9.30;5.73;;;;;;;;;;6111534;29;20058;-60
2023/08/30 14:35:44;;;;;;;10.70;5.80;;;;;;;;;;6116687;29;20558;-61
2023/08/30 14:38:44;;;;;;;9.98;5.68;;;;;;;;;;6111042;29;20043;-58
2023/08/30 14:41:45;;;;;;;10.07;5.73;;;;;;;;;;6113120;29;20110;-57
2023/08/30 14:44:50;;;;;;;8.40;5.57;;;;;;;;;;6111368;29;20504;-60
2023/08/30 14:47:51;;;;;;;8.63;5.05;;;;;;;;;;6111416;29;20731;-60
2023/08/30 14:50:52;;;;;;;8.45;5.15;;;;;;;;;;6109915;29;20069;-60
2023/08/30 14:53:53;;;;;;;8.85;5.10;;;;;;;;;;6106734;29;20942;-60
2023/08/30 14:56:53;;;;;;;8.43;4.97;;;;;;;;;;6109282;29;20055;-59
2023/08/30 14:59:54;;;;;;;9.07;5.35;;;;;;;;;;6114695;29;20051;-55
2023/08/30 15:02:54;;;;;;;9.35;5.07;;;;;;;;;;6123048;29;20044;-55
2023/08/30 15:05:56;;;;;;;9.13;4.43;;;;;;;;;;6114639;29;20070;-58
2023/08/30 15:08:58;;;;;;;8.13;4.80;;;;;;;;;;6124891;29;20063;-58
2023/08/30 15:11:58;;;;;;;10.50;4.32;;;;;;;;;;6120035;29;20488;-62
2023/08/30 15:14:59;;;;;;;8.20;5.18;;;;;;;;;;6115738;29;20044;-60
2023/08/30 15:17:59;;;;;;;8.30;5.35;;;;;;;;;;6118438;29;20047;-61
2023/08/30 15:21:01;;;;;;;7.97;5.10;;;;;;;;;;6118431;29;20134;-59
2023/08/30 15:24:02;;;;;;;;;;;;;;;;;;6118233;29;20056;-58
2023/08/30 15:27:03;;;;;;;9.07;4.65;;;;;;;;;;6122641;29;20386;-57
2023/08/30 15:30:04;;;;;;;7.83;5.13;;;;;;;;;;6118999;29;20063;-62
2023/08/30 15:33:08;;;;;;;9.10;4.80;;;;;;;;;;6121835;29;20047;-59
2023/08/30 15:36:08;;;;;;;10.48;4.82;;;;;;;;;;6113779;29;20522;-60
2023/08/30 15:39:10;;;;;;;9.75;4.95;;;;;;;;;;6122108;29;20051;-59
2023/08/30 15:42:10;;;;;;;9.73;6.13;;;;;;;;;;6118102;29;20054;-60
2023/08/30 15:45:11;;;;;;;9.75;6.10;;;;;;;;;;6116217;29;20056;-55
2023/08/30 15:48:11;;;;;;;10.73;6.22;;;;;;;;;;6121923;29;20070;-58
2023/08/30 15:51:13;;;;;;;11.57;6.90;;;;;;;;;;6125448;29;20074;-57
2023/08/30 15:54:15;;;;;;;12.43;7.38;;;;;;;;;;6123814;29;20126;-58
2023/08/30 15:57:15;;;;;;;13.63;7.78;;;;;;;;;;6123530;29;20059;-58
2023/08/30 16:00:16;;;;;;;14.48;8.18;;;;;;;;;;6122135;29;20616;-59
2023/08/30 16:03:17;;;;;;;14.23;8.17;;;;;;;;;;6112138;29;20059;-61
2023/08/30 16:06:18;;;;;;;14.07;7.97;;;;;;;;;;6117585;29;20055;-59
2023/08/30 16:09:19;;;;;;;14.65;8.65;;;;;;;;;;6117657;29;20095;-69
2023/08/30 16:12:20;;;;;;;14.68;8.57;;;;;;;;;;6114685;29;20052;-62
2023/08/30 16:15:23;;;;;;;14.50;8.50;;;;;;;;;;6109382;29;20056;-59
2023/08/30 16:18:24;;;;;;;16.17;8.95;;;;;;;;;;6116436;29;20395;-59
2023/08/30 16:21:24;;;;;;;16.80;9.65;;;;;;;;;;6117990;29;20062;-60
2023/08/30 16:24:27;;;;;;;15.73;9.52;;;;;;;;;;6115939;29;20067;-61
2023/08/30 16:27:28;;;;;;;16.33;9.60;;;;;;;;;;6119260;29;21148;-60
2023/08/30 16:30:29;;;;;;;15.63;8.98;;;;;;;;;;6114764;29;20048;-61
2023/08/30 16:33:29;;;;;;;14.48;8.80;;;;;;;;;;6117003;29;20058;-61
2023/08/30 16:36:30;;;;;;;14.63;8.18;;;;;;;;;;6116162;29;20058;-57
2023/08/30 16:39:30;;;;;;;12.07;7.53;;;;;;;;;;6121297;29;20051;-58
2023/08/30 16:42:31;;;;;;;11.60;7.85;;;;;;;;;;6112162;29;20079;-58
2023/08/30 16:45:32;;;;;;;12.50;7.70;;;;;;;;;;6101671;29;20059;-58
2023/08/30 16:48:32;;;;;;;11.98;7.70;;;;;;;;;;6118084;29;20062;-60
2023/08/30 16:51:33;;;;;;;12.80;7.68;;;;;;;;;;6118646;29;20087;-61
2023/08/30 16:54:34;;;;;;;12.55;7.93;;;;;;;;;;6120043;29;20054;-60
2023/08/30 16:57:34;;;;;;;11.68;7.20;;;;;;;;;;6122946;29;20047;-59
2023/08/30 17:00:35;;;;;;;11.77;7.40;;;;;;;;;;6117225;29;20549;-55
2023/08/30 17:03:36;;;;;;;11.23;7.30;;;;;;;;;;6113766;29;20109;-56
2023/08/30 17:06:37;;;;;;;11.20;7.28;;;;;;;;;;6112884;29;20078;-55
2023/08/30 17:09:38;;;;;;;10.40;6.57;;;;;;;;;;6112334;29;20052;-57
2023/08/30 17:12:40;;;;;;;11.82;7.00;;;;;;;;;;6107634;29;20063;-55
2023/08/30 17:15:41;;;;;;;12.45;6.90;;;;;;;;;;6111578;29;20067;-56
2023/08/30 17:18:41;;;;;;;11.07;6.75;;;;;;;;;;6106228;29;20052;-61
2023/08/30 17:21:42;;;;;;;10.25;6.63;;;;;;;;;;6088024;29;20411;-59
2023/08/30 17:24:43;;;;;;;14.50;6.70;;;;;;;;;;6108861;29;20146;-59
2023/08/30 17:27:43;;;;;;;10.73;6.32;;;;;;;;;;6108337;29;20063;-59
2023/08/30 17:30:44;;;;;;;9.05;5.88;;;;;;;;;;6109332;29;20182;-59
2023/08/30 17:33:45;;;;;;;10.90;6.75;;;;;;;;;;6110283;29;20047;-59
2023/08/30 17:36:47;;;;;;;10.13;6.88;;;;;;;;;;6108063;29;20134;-57
2023/08/30 17:39:48;;;;;;;12.73;7.30;;;;;;;;;;6108671;29;20086;-55
2023/08/30 17:42:49;;;;;;;11.80;7.30;;;;;;;;;;6106167;29;20449;-60
2023/08/30 17:45:49;;;;;;;12.90;8.05;;;;;;;;;;6106366;29;20052;-59
2023/08/30 17:48:50;;;;;;;15.85;8.70;;;;;;;;;;6104491;29;20071;-58
2023/08/30 17:51:52;;;;;;;16.63;9.10;;;;;;;;;;6104623;29;20048;-59